Time;durP1;ratioP1;P1;durP2;ratioP2;P2;SDS_P1;SDS_P2;PMS_P1;PMS_P2;Temp;Humidity;BMP_temperature;BMP_pressure;BME280_temperature;BME280_humidity;BME280_pressure;Samples;Min_cycle;Max_cycle;Signal;HPM_P1;HPM_P2
2022/06/13 00:02:25;;;;;;;;;3.33;3.33;;;;;19.51;41.67;101535.41;5072618;28;45575;-66
2022/06/13 00:04:50;;;;;;;;;2.67;2.67;;;;;19.37;41.89;101533.50;5074078;28;45630;-68
2022/06/13 00:07:16;;;;;;;;;1.67;1.67;;;;;19.32;41.77;101530.28;5074310;28;45554;-68
2022/06/13 00:09:41;;;;;;;;;3.00;3.00;;;;;19.23;42.81;101530.78;5050285;28;45450;-67
2022/06/13 00:12:07;;;;;;;;;2.00;2.00;;;;;19.23;42.41;101534.28;5052070;28;61169;-68
2022/06/13 00:14:32;;;;;;;;;3.00;3.00;;;;;19.26;42.63;101541.25;5070925;28;45523;-69
2022/06/13 00:16:58;;;;;;;;;2.33;2.00;;;;;19.28;42.63;101548.22;5061184;28;45541;-67
2022/06/13 00:19:23;;;;;;;;;1.67;1.67;;;;;19.29;42.74;101543.75;5035703;28;45616;-67
2022/06/13 00:21:48;;;;;;;;;2.33;2.33;;;;;19.36;42.66;101542.47;5060800;28;46228;-69
2022/06/13 00:24:14;;;;;;;;;2.67;2.00;;;;;19.35;42.67;101546.09;5071527;28;45497;-68
2022/06/13 00:26:39;;;;;;;;;2.67;2.67;;;;;19.35;42.29;101546.09;5069961;28;45562;-67
2022/06/13 00:29:05;;;;;;;;;2.33;2.00;;;;;19.35;42.85;101544.28;5068090;28;45595;-67
2022/06/13 00:31:31;;;;;;;;;4.00;3.00;;;;;19.35;42.82;101540.75;5062773;28;45603;-66
2022/06/13 00:33:56;;;;;;;;;4.00;3.67;;;;;19.33;43.32;101545.31;5040405;28;45669;-68
2022/06/13 00:36:23;;;;;;;;;2.67;2.67;;;;;19.39;43.10;101544.94;5066686;27;45559;-69
2022/06/13 00:38:51;;;;;;;;;3.67;2.00;;;;;19.39;42.37;101540.47;5074337;28;45649;-66
2022/06/13 00:41:28;;;;;;;;;4.67;3.33;;;;;19.37;42.89;101538.84;5040411;28;47267;-68
2022/06/13 00:43:54;;;;;;;;;2.00;2.00;;;;;19.37;42.99;101553.06;5066632;28;45475;-67
2022/06/13 00:46:32;;;;;;;;;3.33;3.33;;;;;19.34;43.18;101545.25;5070866;28;45524;-69
2022/06/13 00:49:03;;;;;;;;;4.00;4.00;;;;;19.28;43.49;101542.91;5074492;28;45421;-66
2022/06/13 00:51:31;;;;;;;;;4.00;3.00;;;;;19.26;43.10;101543.94;5073337;28;46898;-66
2022/06/13 00:53:57;;;;;;;;;2.00;2.00;;;;;19.29;43.32;101535.75;5073841;28;45427;-70
2022/06/13 00:56:27;;;;;;;;;2.00;2.00;;;;;19.35;43.40;101540.75;5058114;28;45526;-66
2022/06/13 00:58:58;;;;;;;;;2.33;2.33;;;;;19.35;44.10;101540.75;5056686;28;45503;-68
2022/06/13 01:01:24;;;;;;;;;2.00;2.00;;;;;19.28;43.81;101540.22;5067958;28;46476;-69
2022/06/13 01:03:51;;;;;;;;;2.67;2.00;;;;;19.24;43.86;101533.38;5057066;28;45480;-68
2022/06/13 01:06:18;;;;;;;;;3.00;3.00;;;;;19.33;43.92;101534.66;5067712;28;45668;-67
2022/06/13 01:08:43;;;;;;;;;2.67;2.67;;;;;19.28;43.67;101523.38;5071370;28;45455;-67
2022/06/13 01:11:16;;;;;;;;;4.33;3.00;;;;;19.29;44.24;101523.31;5056572;28;46067;-64
2022/06/13 01:14:03;;;;;;;;;2.67;2.33;;;;;19.20;44.82;101527.31;5070548;28;45494;-68
2022/06/13 01:16:31;;;;;;;;;4.33;2.00;;;;;19.18;44.65;101523.91;5068083;28;45445;-68
2022/06/13 01:19:15;;;;;;;;;4.00;4.00;;;;;19.15;45.10;101528.53;5061258;28;45524;-70
2022/06/13 01:21:46;;;;;;;;;6.00;2.00;;;;;19.16;45.25;101523.13;5056310;28;45508;-70
2022/06/13 01:24:42;;;;;;;;;2.33;2.33;;;;;19.18;45.46;101525.69;5037519;28;45469;-67
2022/06/13 01:27:20;;;;;;;;;3.67;3.67;;;;;19.15;44.47;101526.72;5061381;28;45514;-66
2022/06/13 01:30:22;;;;;;;;;3.33;3.33;;;;;19.02;44.92;101499.06;5058134;28;45490;-66
2022/06/13 01:33:13;;;;;;;;;3.00;3.00;;;;;19.19;44.53;101514.94;5066783;28;45564;-67
2022/06/13 01:35:44;;;;;;;;;5.00;2.67;;;;;19.19;44.90;101522.94;5065370;27;45452;-67
2022/06/13 01:38:12;;;;;;;;;2.67;2.00;;;;;19.22;44.75;101516.59;5073704;28;45534;-67
2022/06/13 01:40:56;;;;;;;;;2.67;2.67;;;;;19.08;45.72;101513.84;5068704;28;45350;-67
2022/06/13 01:43:37;;;;;;;;;3.00;3.00;;;;;18.93;45.93;101513.75;5076388;28;45605;-67
2022/06/13 01:46:13;;;;;;;;;3.33;3.33;;;;;18.87;45.93;101521.25;5067425;28;45543;-66
2022/06/13 01:49:04;;;;;;;;;3.00;3.00;;;;;18.73;46.13;101514.81;5037671;28;45535;-67
2022/06/13 01:51:55;;;;;;;;;4.67;4.67;;;;;18.80;46.35;101519.84;5055514;28;45474;-65
2022/06/13 01:54:32;;;;;;;;;4.00;4.00;;;;;18.87;45.77;101526.56;5066740;28;46511;-67
2022/06/13 01:57:00;;;;;;;;;4.33;3.00;;;;;18.87;46.25;101530.09;5057566;28;45448;-69
2022/06/13 01:59:33;;;;;;;;;4.00;4.00;;;;;18.84;46.44;101527.59;5056134;28;45746;-68
2022/06/13 02:02:09;;;;;;;;;2.33;1.00;;;;;18.85;46.35;101534.63;5067277;28;45518;-66
2022/06/13 02:04:40;;;;;;;;;3.67;3.67;;;;;18.80;46.81;101530.50;5038061;28;45738;-67
2022/06/13 02:07:16;;;;;;;;;4.00;3.67;;;;;18.79;46.71;101537.66;5065935;28;45746;-67
2022/06/13 02:09:50;;;;;;;;;5.33;5.00;;;;;18.79;47.56;101526.97;5076103;28;45477;-67
2022/06/13 02:12:19;;;;;;;;;6.00;4.67;;;;;18.73;47.10;101528.16;5074749;28;45543;-68
2022/06/13 02:14:50;;;;;;;;;6.00;5.00;;;;;18.69;47.30;101523.91;5057378;28;46637;-67
2022/06/13 02:17:23;;;;;;;;;5.67;5.67;;;;;18.79;47.57;101528.78;5037434;28;45529;-68
2022/06/13 02:20:13;;;;;;;;;6.00;3.67;;;;;18.77;47.32;101534.19;5055340;28;45452;-68
2022/06/13 02:22:45;;;;;;;;;4.67;4.33;;;;;18.73;47.66;101525.50;5054812;28;45519;-67
2022/06/13 02:25:16;;;;;;;;;4.00;4.00;;;;;18.80;47.56;101522.50;5055979;28;45414;-66
2022/06/13 02:27:45;;;;;;;;;5.33;5.33;;;;;18.78;47.86;101533.28;5062475;28;45643;-68
2022/06/13 02:30:17;;;;;;;;;4.67;4.00;;;;;18.57;47.53;101519.28;5055202;28;45395;-68
2022/06/13 02:32:51;;;;;;;;;3.00;3.00;;;;;18.60;47.93;101528.91;5055349;28;45456;-67
2022/06/13 02:35:27;;;;;;;;;5.33;4.00;;;;;18.59;48.70;101528.06;5057617;28;45598;-66
2022/06/13 02:38:15;;;;;;;;;5.67;5.67;;;;;18.58;48.51;101531.63;5055607;28;45543;-69
2022/06/13 02:40:49;;;;;;;;;6.67;6.67;;;;;18.51;48.38;101524.91;5054601;28;45477;-67
2022/06/13 02:43:36;;;;;;;;;9.67;7.33;;;;;18.50;48.42;101517.88;5067502;28;45461;-68
2022/06/13 02:46:19;;;;;;;;;7.00;7.00;;;;;18.50;48.55;101528.53;5069980;28;45948;-68
2022/06/13 02:49:00;;;;;;;;;10.67;8.67;;;;;18.51;48.74;101522.25;5066276;28;45557;-67
2022/06/13 02:51:41;;;;;;;;;10.67;9.33;;;;;18.48;48.70;101528.63;5054643;28;45964;-67
2022/06/13 02:54:33;;;;;;;;;10.00;9.33;;;;;18.55;49.04;101532.66;5058777;28;45471;-68
2022/06/13 02:57:23;;;;;;;;;9.00;8.00;;;;;18.54;48.78;101528.28;5065456;28;45514;-69
2022/06/13 03:00:02;;;;;;;;;9.67;9.67;;;;;18.53;49.09;101523.03;5075216;28;45563;-69
2022/06/13 03:02:44;;;;;;;;;5.33;5.33;;;;;18.50;48.65;101528.53;5071773;28;45568;-68
2022/06/13 03:05:33;;;;;;;;;8.00;7.00;;;;;18.51;48.49;101530.25;5036625;28;45605;-68
2022/06/13 03:08:23;;;;;;;;;6.67;6.67;;;;;18.43;49.36;101530.69;5014967;28;46402;-69
2022/06/13 03:10:57;;;;;;;;;4.33;4.33;;;;;18.43;49.26;101530.69;5073899;28;45510;-67
2022/06/13 03:13:42;;;;;;;;;5.00;4.67;;;;;18.40;49.35;101544.13;5075120;28;45511;-69
2022/06/13 03:16:12;;;;;;;;;6.00;6.00;;;;;18.47;48.90;101542.03;5073385;28;45395;-66
2022/06/13 03:18:46;;;;;;;;;7.00;5.67;;;;;18.51;48.70;101544.44;5073765;28;46592;-69
2022/06/13 03:21:36;;;;;;;;;5.00;4.00;;;;;18.56;48.89;101549.50;5074106;28;45516;-67
2022/06/13 03:24:14;;;;;;;;;5.00;4.00;;;;;18.52;48.54;101556.81;5064430;28;45636;-66
2022/06/13 03:26:45;;;;;;;;;4.00;4.00;;;;;18.47;48.81;101566.84;5054612;28;45468;-67
2022/06/13 03:29:17;;;;;;;;;8.00;6.67;;;;;18.39;49.27;101555.75;5054511;28;46402;-68
2022/06/13 03:31:48;;;;;;;;;4.67;4.67;;;;;18.27;49.74;101557.25;5072261;28;45623;-68
2022/06/13 03:34:18;;;;;;;;;7.67;6.00;;;;;18.19;49.97;101554.13;5073756;28;45487;-67
2022/06/13 03:36:51;;;;;;;;;6.67;5.00;;;;;18.22;50.02;101572.59;5063520;28;45792;-68
2022/06/13 03:39:25;;;;;;;;;6.33;6.00;;;;;18.15;50.15;101571.19;5074316;28;45582;-66
2022/06/13 03:42:31;;;;;;;;;5.00;5.00;;;;;18.00;50.68;101580.84;5074245;28;45511;-68
2022/06/13 03:45:03;;;;;;;;;4.00;4.00;;;;;17.98;50.68;101577.38;4993978;28;45666;-68
2022/06/13 03:47:38;;;;;;;;;4.33;4.33;;;;;18.03;50.53;101578.03;5048128;28;45454;-68
2022/06/13 03:50:13;;;;;;;;;5.67;4.67;;;;;18.03;50.82;101580.69;5065858;28;45547;-68
2022/06/13 03:52:44;;;;;;;;;5.33;5.00;;;;;18.01;50.63;101574.56;5054359;28;45455;-67
2022/06/13 03:55:17;;;;;;;;;4.00;4.00;;;;;17.99;50.37;101578.25;5054252;28;45420;-67
2022/06/13 03:57:52;;;;;;;;;9.67;5.33;;;;;18.09;50.06;101574.19;5053454;28;45491;-67
2022/06/13 04:00:28;;;;;;;;;7.33;6.67;;;;;18.05;50.69;101577.91;5053995;28;46161;-68
2022/06/13 04:02:55;;;;;;;;;6.00;6.00;;;;;18.03;50.75;101574.50;5054267;28;45539;-68
2022/06/13 04:05:35;;;;;;;;;6.00;6.00;;;;;18.04;50.38;101579.72;5061804;28;45505;-67
2022/06/13 04:08:01;;;;;;;;;6.00;5.00;;;;;17.97;50.66;101572.13;5056626;28;45459;-69
2022/06/13 04:10:29;;;;;;;;;5.67;5.00;;;;;17.95;50.81;101564.25;5058626;28;45495;-66
2022/06/13 04:13:03;;;;;;;;;7.33;6.33;;;;;17.88;50.92;101571.66;5058269;28;45892;-68
2022/06/13 04:16:04;;;;;;;;;4.00;4.00;;;;;17.87;51.25;101577.94;5059595;28;45464;-66
2022/06/13 04:19:03;;;;;;;;;5.67;4.67;;;;;17.94;50.75;101578.47;5056100;28;45647;-67
2022/06/13 04:21:42;;;;;;;;;6.67;5.67;;;;;17.87;51.32;101577.94;5077319;28;45510;-67
2022/06/13 04:24:28;;;;;;;;;5.67;5.00;;;;;17.80;52.10;101578.31;5067941;28;45517;-67
2022/06/13 04:27:14;;;;;;;;;5.33;5.33;;;;;17.85;51.42;101578.94;5057934;28;45501;-68
2022/06/13 04:30:14;;;;;;;;;5.33;5.33;;;;;17.83;51.75;101587.00;5071436;28;45611;-68
2022/06/13 04:32:48;;;;;;;;;6.00;4.00;;;;;17.76;51.89;101585.56;5057332;28;45571;-66
2022/06/13 04:35:15;;;;;;;;;5.00;4.00;;;;;17.80;51.61;101579.16;5069636;28;45475;-68
2022/06/13 04:37:42;;;;;;;;;4.00;4.00;;;;;17.80;51.72;101578.31;5056968;28;45486;-66
2022/06/13 04:40:14;;;;;;;;;5.00;5.00;;;;;17.86;51.27;101580.66;5057556;28;45425;-67
2022/06/13 04:42:42;;;;;;;;;4.33;4.33;;;;;17.86;51.74;101580.66;5041912;28;47001;-67
2022/06/13 04:45:22;;;;;;;;;6.33;5.00;;;;;17.88;52.03;101584.09;5059858;28;45581;-66
2022/06/13 04:47:49;;;;;;;;;7.00;6.00;;;;;17.87;52.16;101583.25;5072610;28;45536;-66
2022/06/13 04:50:20;;;;;;;;;6.00;4.33;;;;;17.87;52.39;101585.06;5062800;28;45645;-67
2022/06/13 04:52:50;;;;;;;;;4.33;4.33;;;;;17.81;52.26;101588.00;5066547;28;46094;-65
2022/06/13 04:55:21;;;;;;;;;6.67;6.67;;;;;17.78;52.37;101582.81;5074159;28;45575;-67
2022/06/13 04:57:46;;;;;;;;;5.33;5.33;;;;;17.82;51.80;101585.28;5060215;28;45645;-65
2022/06/13 05:00:14;;;;;;;;;6.67;6.33;;;;;17.84;52.04;101598.53;5069806;28;45507;-65
2022/06/13 05:02:41;;;;;;;;;7.00;7.00;;;;;17.79;52.41;101592.56;5055622;28;46404;-67
2022/06/13 05:05:25;;;;;;;;;7.33;7.33;;;;;17.74;52.75;101598.06;5055609;28;45594;-68
2022/06/13 05:07:51;;;;;;;;;5.67;5.67;;;;;17.83;51.53;101596.78;5071648;28;45467;-67
2022/06/13 05:10:21;;;;;;;;;6.00;5.67;;;;;17.80;52.24;101595.13;5066083;28;45685;-66
2022/06/13 05:12:47;;;;;;;;;5.33;5.33;;;;;17.81;52.50;101603.97;5066174;28;45528;-66
2022/06/13 05:15:12;;;;;;;;;6.00;4.00;;;;;17.79;52.60;101603.22;5055294;28;45452;-65
2022/06/13 05:18:07;;;;;;;;;7.00;6.00;;;;;17.78;52.52;101604.94;5072276;28;45571;-67
2022/06/13 05:20:54;;;;;;;;;5.67;5.00;;;;;17.79;52.61;101601.41;5056613;28;45573;-65
2022/06/13 05:23:39;;;;;;;;;7.33;6.00;;;;;17.83;52.58;101597.63;5042066;28;48336;-68
2022/06/13 05:26:06;;;;;;;;;4.00;4.00;;;;;17.88;52.13;101595.59;5070629;28;45517;-68
2022/06/13 05:28:34;;;;;;;;;5.00;5.00;;;;;17.82;52.45;101587.09;5073263;28;45484;-66
2022/06/13 05:31:07;;;;;;;;;9.00;8.00;;;;;17.95;52.44;101595.31;5069382;28;45495;-67
2022/06/13 05:33:40;;;;;;;;;8.33;5.00;;;;;17.96;52.29;101599.69;5055823;28;46224;-68
2022/06/13 05:36:10;;;;;;;;;7.00;6.33;;;;;17.98;52.39;101596.03;5059189;28;45865;-65
2022/06/13 05:38:45;;;;;;;;;7.33;7.33;;;;;17.93;52.63;101597.19;5060661;28;45587;-67
2022/06/13 05:41:11;;;;;;;;;6.33;6.00;;;;;17.94;52.89;101606.88;5071313;28;45499;-68
2022/06/13 05:43:36;;;;;;;;;5.00;5.00;;;;;18.00;52.24;101606.56;5062770;28;45464;-67
2022/06/13 05:46:07;;;;;;;;;8.67;6.67;;;;;17.93;52.78;101608.69;5072235;28;45513;-69
2022/06/13 05:48:33;;;;;;;;;7.00;6.00;;;;;17.94;53.01;101614.88;5061154;28;45564;-69
2022/06/13 05:50:58;;;;;;;;;7.67;6.00;;;;;17.90;52.93;101613.31;5058071;28;45452;-66
2022/06/13 05:53:25;;;;;;;;;10.00;8.00;;;;;17.94;52.45;101612.22;5060362;27;46106;-66
2022/06/13 05:55:55;;;;;;;;;8.00;7.00;;;;;17.98;52.97;101613.81;5096144;27;45521;-67
2022/06/13 05:58:22;;;;;;;;;7.00;7.00;;;;;17.94;53.17;101612.22;5049873;28;45747;-66
2022/06/13 06:00:53;;;;;;;;;6.00;5.33;;;;;17.97;52.73;101606.72;5057361;28;45445;-69
2022/06/13 06:03:19;;;;;;;;;8.33;6.00;;;;;17.96;52.98;101613.00;5064403;28;45679;-66
2022/06/13 06:05:45;;;;;;;;;6.00;5.33;;;;;18.03;52.79;101619.75;5064513;27;45548;-74
2022/06/13 06:08:20;;;;;;;;;6.33;6.33;;;;;18.09;52.83;101619.44;5057769;28;45611;-73
2022/06/13 06:10:48;;;;;;;;;8.67;6.33;;;;;18.16;52.76;101627.97;5061389;28;45651;-73
2022/06/13 06:13:14;;;;;;;;;5.67;5.67;;;;;18.15;52.34;101620.94;5057231;28;45409;-73
2022/06/13 06:15:41;;;;;;;;;9.00;9.00;;;;;18.21;53.10;101621.47;5059937;28;45598;-73
2022/06/13 06:18:07;;;;;;;;;9.00;6.67;;;;;18.21;52.70;101623.25;5052823;28;45729;-73
2022/06/13 06:20:33;;;;;;;;;10.33;6.33;;;;;18.27;52.25;101634.47;5076435;27;45481;-72
2022/06/13 06:22:58;;;;;;;;;8.33;8.33;;;;;18.22;52.53;101631.19;5063736;28;46065;-75
2022/06/13 06:25:23;;;;;;;;;7.00;7.00;;;;;18.16;52.43;101627.97;5054312;28;45690;-73
2022/06/13 06:27:49;;;;;;;;;9.33;8.00;;;;;18.21;52.57;101644.56;5058295;28;45511;-66
2022/06/13 06:30:16;;;;;;;;;10.00;8.00;;;;;18.23;52.69;101643.56;5071780;28;45489;-67
2022/06/13 06:32:42;;;;;;;;;6.00;6.00;;;;;18.30;52.50;101644.97;5053282;28;46332;-67
2022/06/13 06:35:08;;;;;;;;;10.33;8.67;;;;;18.27;53.10;101646.94;5053868;28;45524;-67
2022/06/13 06:37:34;;;;;;;;;7.00;7.00;;;;;18.33;52.06;101639.50;5055854;28;45534;-66
2022/06/13 06:39:59;;;;;;;;;7.67;7.67;;;;;18.45;52.31;101637.13;5057444;28;45522;-67
2022/06/13 06:42:24;;;;;;;;;6.00;6.00;;;;;18.58;51.85;101638.22;5064636;28;45424;-67
2022/06/13 06:44:50;;;;;;;;;5.67;5.67;;;;;18.59;51.16;101636.41;5055316;28;45581;-67
2022/06/13 06:47:15;;;;;;;;;7.33;6.33;;;;;18.65;51.50;101641.44;5061888;28;45642;-67
2022/06/13 06:49:41;;;;;;;;;10.00;9.00;;;;;18.60;51.89;101640.81;5056147;28;45745;-66
2022/06/13 06:52:07;;;;;;;;;8.67;8.67;;;;;18.69;51.09;101650.97;5054415;28;48402;-66
2022/06/13 07:00:04;;;;;;;;;8.00;6.00;;;;;18.78;50.35;101655.88;5062303;27;45414;-68
2022/06/13 07:02:29;;;;;;;;;9.67;7.33;;;;;18.71;50.53;101641.97;5053113;28;46463;-68
2022/06/13 07:04:59;;;;;;;;;10.67;8.67;;;;;18.70;50.84;101650.06;5053274;28;45450;-65
2022/06/13 07:07:25;;;;;;;;;6.00;6.00;;;;;18.69;50.51;101650.97;5035754;28;45452;-65
2022/06/13 07:09:51;;;;;;;;;9.33;9.33;;;;;18.83;50.32;101650.28;5053828;28;45555;-65
2022/06/13 07:12:17;;;;;;;;;7.67;6.67;;;;;18.96;50.63;101662.00;5053215;28;45531;-66
2022/06/13 07:14:42;;;;;;;;;8.00;6.67;;;;;19.05;50.47;101649.97;5053660;28;45530;-67
2022/06/13 07:17:10;;;;;;;;;7.00;6.33;;;;;19.10;49.98;101643.47;5053845;28;45506;-67
2022/06/13 07:19:35;;;;;;;;;7.33;6.33;;;;;19.14;49.06;101658.34;5053710;28;45569;-68
2022/06/13 07:22:02;;;;;;;;;8.00;6.67;;;;;19.17;49.50;101650.19;5053253;28;45435;-66
2022/06/13 07:24:28;;;;;;;;;7.67;7.67;;;;;19.23;49.12;101648.13;5053587;28;45427;-67
2022/06/13 07:26:54;;;;;;;;;7.00;7.00;;;;;19.35;49.32;101658.13;5053214;28;45369;-67
2022/06/13 07:29:19;;;;;;;;;6.33;6.33;;;;;19.42;48.70;101662.16;5074519;27;45491;-66
2022/06/13 07:32:07;;;;;;;;;8.33;6.00;;;;;19.48;48.49;101656.50;5094230;27;45939;-68
2022/06/13 07:34:35;;;;;;;;;8.67;7.00;;;;;19.52;48.78;101665.19;5094393;27;45728;-66
2022/06/13 07:37:03;;;;;;;;;7.67;7.00;;;;;19.47;47.71;101657.44;5059798;27;45482;-64
2022/06/13 07:39:28;;;;;;;;;5.00;5.00;;;;;19.47;48.40;101657.44;5073565;28;45580;-65
2022/06/13 07:41:55;;;;;;;;;8.67;8.33;;;;;19.49;48.27;101654.69;5067198;28;46212;-67
2022/06/13 07:44:25;;;;;;;;;8.00;8.00;;;;;19.40;48.09;101656.06;5057127;28;45459;-68
2022/06/13 07:46:51;;;;;;;;;8.33;8.33;;;;;19.46;48.11;101650.38;5056482;28;45515;-65
2022/06/13 07:49:19;;;;;;;;;7.33;7.33;;;;;19.49;48.14;101660.88;5051883;28;45454;-66
2022/06/13 07:51:45;;;;;;;;;8.33;7.67;;;;;19.48;47.96;101660.97;5057445;28;46267;-67
2022/06/13 07:54:10;;;;;;;;;5.00;5.00;;;;;19.51;47.66;101669.66;5071407;28;45592;-67
2022/06/13 07:56:38;;;;;;;;;6.00;6.00;;;;;19.57;47.53;101669.31;5069845;28;45451;-65
2022/06/13 07:59:05;;;;;;;;;11.00;8.33;;;;;19.61;46.91;101662.00;5039329;28;45401;-67
2022/06/13 08:01:31;;;;;;;;;6.67;6.67;;;;;19.64;45.87;101668.03;5057236;28;45601;-64
2022/06/13 08:03:57;;;;;;;;;7.00;6.00;;;;;19.60;45.08;101671.81;5057063;28;45501;-65
2022/06/13 08:06:24;;;;;;;;;4.33;4.33;;;;;19.58;45.51;101670.19;5071520;28;45493;-65
2022/06/13 08:08:49;;;;;;;;;7.00;7.00;;;;;19.58;45.03;101667.50;5077383;28;45506;-67
2022/06/13 08:11:27;;;;;;;;;5.00;5.00;;;;;19.62;45.65;101663.72;5096493;27;45457;-67
2022/06/13 08:13:53;;;;;;;;;6.00;6.00;;;;;19.62;46.01;101653.06;5065070;27;45588;-68
2022/06/13 08:16:18;;;;;;;;;8.00;8.00;;;;;19.71;45.50;101668.56;5063891;28;45626;-64
2022/06/13 08:18:44;;;;;;;;;6.00;5.00;;;;;19.62;45.14;101663.72;5065543;28;45509;-68
2022/06/13 08:21:11;;;;;;;;;6.00;6.00;;;;;19.65;45.65;101668.91;5077294;28;45498;-67
2022/06/13 08:23:36;;;;;;;;;7.33;7.00;;;;;19.67;45.93;101660.84;5065365;28;45525;-67
2022/06/13 08:26:02;;;;;;;;;6.00;6.00;;;;;19.69;45.51;101662.44;5067009;27;45460;-67
2022/06/13 08:28:28;;;;;;;;;7.00;5.00;;;;;19.73;45.06;101661.34;5096812;27;45558;-67
2022/06/13 08:30:58;;;;;;;;;7.33;6.00;;;;;19.81;44.55;101668.91;5075274;27;45594;-65
2022/06/13 08:33:24;;;;;;;;;5.67;5.67;;;;;19.82;44.73;101671.50;5089100;27;45499;-66
2022/06/13 08:35:50;;;;;;;;;5.00;5.00;;;;;19.88;44.89;101667.63;5078722;27;45446;-67
2022/06/13 08:38:17;;;;;;;;;7.00;5.00;;;;;19.91;44.99;101667.44;5089644;27;45641;-67
2022/06/13 08:41:01;;;;;;;;;6.00;5.33;;;;;19.98;45.15;101658.13;5097119;27;46105;-66
2022/06/13 08:43:41;;;;;;;;;8.67;6.00;;;;;20.02;44.70;101667.69;5096953;27;45430;-67
2022/06/13 08:46:29;;;;;;;;;7.00;5.67;;;;;20.08;44.23;101666.47;5097235;27;45536;-66
2022/06/13 08:49:21;;;;;;;;;7.00;7.00;;;;;20.14;44.29;101660.75;5060981;27;45667;-68
2022/06/13 08:51:53;;;;;;;;;5.33;5.33;;;;;20.22;43.69;101660.31;5088245;27;45537;-65
2022/06/13 08:54:24;;;;;;;;;8.00;6.00;;;;;20.20;43.70;101657.75;5097219;27;45556;-65
2022/06/13 08:56:52;;;;;;;;;5.67;5.67;;;;;20.21;43.42;101667.47;5096299;27;45574;-66
2022/06/13 08:59:36;;;;;;;;;7.00;4.00;;;;;20.24;43.35;101661.09;5076831;28;46045;-64
2022/06/13 09:02:10;;;;;;;;;5.00;5.00;;;;;20.26;42.62;101667.22;5076652;28;45758;-65
2022/06/13 09:05:01;;;;;;;;;6.67;6.00;;;;;20.19;43.14;101665.84;5075351;28;45416;-66
2022/06/13 09:08:04;;;;;;;;;86.25;78.25;;;;;20.27;42.97;101664.44;5061263;27;45389;-66
2022/06/13 09:10:38;;;;;;;;;7.00;7.00;;;;;20.33;42.81;101659.69;5048046;27;45636;-64
2022/06/13 09:13:13;;;;;;;;;5.00;5.00;;;;;20.37;42.53;101662.09;5060535;27;45540;-64
2022/06/13 09:15:45;;;;;;;;;4.67;4.00;;;;;20.41;42.07;101666.28;5054898;28;46185;-64
2022/06/13 09:18:23;;;;;;;;;5.00;5.00;;;;;20.41;40.60;101662.75;5056438;27;45436;-66
2022/06/13 09:20:56;;;;;;;;;4.67;4.67;;;;;20.40;41.07;101664.56;5056328;27;45453;-65
2022/06/13 09:23:32;;;;;;;;;5.00;3.33;;;;;20.34;40.96;101653.38;5041393;27;45788;-67
2022/06/13 09:26:09;;;;;;;;;5.33;4.00;;;;;20.40;40.84;101664.56;5047142;28;45396;-64
2022/06/13 09:28:46;;;;;;;;;3.33;3.33;;;;;20.49;40.61;101657.81;5056128;28;45497;-66
2022/06/13 09:31:25;;;;;;;;;3.00;3.00;;;;;20.52;40.02;101663.84;5055986;28;45575;-66
2022/06/13 09:34:08;;;;;;;;;5.00;5.00;;;;;20.55;39.83;101665.47;5055099;27;45640;-65
2022/06/13 09:36:36;;;;;;;;;5.67;4.00;;;;;20.60;38.99;101673.22;5063847;27;45436;-65
2022/06/13 09:39:07;;;;;;;;;6.00;4.67;;;;;20.59;37.68;101660.84;5067369;27;45604;-64
2022/06/13 09:41:52;;;;;;;;;4.00;4.00;;;;;20.59;37.51;101674.19;5096572;27;45611;-65
2022/06/13 09:44:31;;;;;;;;;4.67;3.33;;;;;20.59;38.78;101671.53;5054083;27;45639;-65
2022/06/13 09:47:11;;;;;;;;;3.33;2.00;;;;;20.63;38.40;101673.94;5074772;27;45524;-65
2022/06/13 09:49:48;;;;;;;;;3.33;2.00;;;;;20.66;37.94;101655.03;5058709;27;45634;-65
2022/06/13 09:52:53;;;;;;;;;5.67;5.00;;;;;20.68;37.41;101665.59;5055995;27;45610;-66
2022/06/13 09:56:01;;;;;;;;;6.00;4.00;;;;;20.67;38.09;101663.91;5062124;27;45645;-65
2022/06/13 09:58:26;;;;;;;;;5.00;5.00;;;;;20.70;37.02;101669.91;5075749;28;45602;-65
2022/06/13 10:01:05;;;;;;;;;5.33;4.00;;;;;20.67;37.00;101671.91;5073837;27;45496;-65
2022/06/13 10:03:53;;;;;;;;;3.00;3.00;;;;;20.67;37.09;101663.91;5053520;27;45500;-65
2022/06/13 10:06:53;;;;;;;;;3.00;3.00;;;;;20.74;37.58;101657.22;5064008;27;46671;-64
2022/06/13 10:09:41;;;;;;;;;6.33;5.00;;;;;20.80;37.30;101656.00;5055559;27;45478;-65
2022/06/13 10:12:19;;;;;;;;;9.00;6.00;;;;;20.88;38.23;101667.06;5061092;28;45604;-65
2022/06/13 10:14:59;;;;;;;;;6.33;6.00;;;;;20.85;36.80;101670.78;5054992;28;45479;-66
2022/06/13 10:17:24;;;;;;;;;5.33;5.00;;;;;20.90;37.47;101665.13;5055494;27;45546;-65
2022/06/13 10:20:11;;;;;;;;;5.00;5.00;;;;;20.97;37.07;101663.81;5055054;28;45451;-66
2022/06/13 10:23:06;;;;;;;;;6.00;5.00;;;;;20.96;37.12;101654.94;5062538;27;45493;-65
2022/06/13 10:25:55;;;;;;;;;4.00;3.00;;;;;21.05;37.50;101652.66;5064242;28;45530;-63
2022/06/13 10:28:46;;;;;;;;;4.67;4.67;;;;;21.08;37.78;101660.47;5054608;28;45424;-65
2022/06/13 10:31:30;;;;;;;;;8.00;5.33;;;;;21.09;37.05;101654.16;5055045;27;46339;-65
2022/06/13 10:34:14;;;;;;;;;3.67;3.67;;;;;21.05;37.55;101641.94;5055154;27;45536;-65
2022/06/13 10:36:54;;;;;;;;;5.33;5.00;;;;;21.10;37.90;101647.88;5043410;28;45593;-66
2022/06/13 10:39:22;;;;;;;;;4.00;4.00;;;;;21.17;37.85;101651.84;5055421;27;46365;-64
2022/06/13 10:41:52;;;;;;;;;5.50;5.50;;;;;21.20;37.50;101646.34;5057570;28;45475;-64
2022/06/13 10:44:18;;;;;;;;;3.25;3.25;;;;;21.20;36.91;101643.66;5067088;27;45495;-65
2022/06/13 10:46:50;;;;;;;;;7.00;6.00;;;;;21.19;37.45;101642.78;5054216;28;45385;-64
2022/06/13 10:49:31;;;;;;;;;5.67;5.67;;;;;21.22;36.77;101652.44;5053659;27;45503;-64
2022/06/13 10:52:01;;;;;;;;;8.00;6.33;;;;;21.19;36.15;101656.16;5043540;28;45486;-65
2022/06/13 10:54:37;;;;;;;;;6.00;6.00;;;;;21.16;35.93;101645.66;5068089;27;45516;-65
2022/06/13 10:57:10;;;;;;;;;4.67;4.67;;;;;21.19;35.75;101647.28;5055980;27;45378;-64
2022/06/13 10:59:38;;;;;;;;;4.33;4.33;;;;;21.23;35.72;101645.28;5072874;27;46443;-64
2022/06/13 11:02:21;;;;;;;;;5.75;4.50;;;;;21.27;35.68;101650.31;5065408;27;45516;-65
2022/06/13 11:05:07;;;;;;;;;4.75;4.00;;;;;21.33;36.34;101654.41;5053172;28;45582;-65
2022/06/13 11:07:42;;;;;;;;;6.00;6.00;;;;;21.40;36.47;101655.78;5054119;28;45459;-65
2022/06/13 11:10:28;;;;;;;;;3.75;3.75;;;;;21.44;36.31;101643.94;5055619;27;46552;-63
2022/06/13 11:12:54;;;;;;;;;5.00;5.00;;;;;21.43;36.64;101641.34;5058804;27;45496;-66
2022/06/13 11:24:58;;;;;;;;;4.33;4.33;;;;;21.54;35.43;101644.19;5070291;28;45452;-64
2022/06/13 11:27:39;;;;;;;;;6.00;5.00;;;;;21.60;35.69;101636.63;5038733;28;45534;-61
2022/06/13 11:30:26;;;;;;;;;4.00;4.00;;;;;21.57;35.87;101644.00;5065200;28;45471;-67
2022/06/13 11:32:59;;;;;;;;;6.25;4.50;;;;;21.65;36.27;101646.16;5054850;27;45661;-62
2022/06/13 11:35:36;;;;;;;;;5.00;4.00;;;;;21.70;36.10;101642.22;5054748;28;45583;-66
2022/06/13 11:38:14;;;;;;;;;3.67;3.67;;;;;21.76;36.16;101635.59;5059098;28;45471;-63
2022/06/13 11:40:40;;;;;;;;;5.00;5.00;;;;;21.78;35.88;101628.34;5059071;27;45610;-65
2022/06/13 11:43:22;;;;;;;;;4.50;4.50;;;;;21.74;35.26;101629.53;5075109;28;47253;-61
2022/06/13 11:45:59;;;;;;;;;4.00;4.00;;;;;21.73;34.97;101638.50;5075018;28;45391;-62
2022/06/13 11:48:26;;;;;;;;;4.00;2.50;;;;;21.72;35.06;101626.94;5054697;27;45451;-63
2022/06/13 11:51:03;;;;;;;;;4.00;4.00;;;;;21.77;34.46;101632.00;5055539;27;45496;-63
2022/06/13 11:53:35;;;;;;;;;4.75;4.25;;;;;21.77;34.92;101623.97;5054445;28;45469;-64
2022/06/13 11:56:20;;;;;;;;;5.00;5.00;;;;;21.86;34.90;101627.84;5054687;28;45600;-64
2022/06/13 11:58:49;;;;;;;;;3.00;3.00;;;;;21.91;34.77;101623.03;5054327;27;45599;-65
2022/06/13 12:01:21;;;;;;;;;6.00;4.50;;;;;21.92;35.08;101625.59;5056807;28;45671;-63
2022/06/13 12:04:17;;;;;;;;;5.00;5.00;;;;;22.00;35.54;101625.09;5055290;27;45676;-62
2022/06/13 12:06:47;;;;;;;;;4.75;4.75;;;;;22.02;35.03;101618.66;5055708;27;45452;-62
2022/06/13 12:09:23;;;;;;;;;6.00;6.00;;;;;22.10;34.62;101628.88;5038943;28;45523;-63
2022/06/13 12:12:07;;;;;;;;;6.25;5.25;;;;;22.11;34.81;101616.31;5059819;28;45483;-64